createdAt,value
2018-05-06T00:01:23.854Z,9.70
2018-05-06T00:03:52.656Z,9.60
2018-05-06T00:06:20.997Z,9.60
2018-05-06T00:08:49.333Z,9.60
2018-05-06T00:11:17.613Z,9.60
2018-05-06T00:13:45.960Z,9.50
2018-05-06T00:16:15.073Z,9.50
2018-05-06T00:18:44.117Z,9.40
2018-05-06T00:21:12.425Z,9.40
2018-05-06T00:23:40.753Z,9.30
2018-05-06T00:26:09.792Z,9.30
2018-05-06T00:28:38.126Z,9.30
2018-05-06T00:31:06.405Z,9.30
2018-05-06T00:33:34.759Z,9.40
2018-05-06T00:36:03.086Z,9.30
2018-05-06T00:38:31.365Z,9.40
2018-05-06T00:40:59.647Z,9.30
2018-05-06T00:43:28.257Z,9.30
2018-05-06T00:45:56.533Z,9.30
2018-05-06T00:48:24.808Z,9.30
2018-05-06T00:50:53.224Z,9.20
2018-05-06T00:53:21.506Z,9.10
2018-05-06T00:55:49.845Z,9.20
2018-05-06T00:58:18.936Z,9.00
2018-05-06T01:00:48.033Z,9.00
2018-05-06T01:03:16.361Z,8.90
2018-05-06T01:05:44.700Z,8.90
2018-05-06T01:08:13.024Z,9.00
2018-05-06T01:10:42.121Z,8.90
2018-05-06T01:13:11.165Z,8.80
2018-05-06T01:15:39.597Z,8.80
2018-05-06T01:18:07.873Z,8.80
2018-05-06T01:20:36.205Z,8.90
2018-05-06T01:23:05.249Z,8.80
2018-05-06T01:25:33.600Z,8.80
2018-05-06T01:28:02.649Z,8.60
2018-05-06T01:30:30.929Z,8.60
2018-05-06T01:32:59.256Z,8.60
2018-05-06T01:35:27.537Z,8.60
2018-05-06T01:37:55.865Z,8.70
2018-05-06T01:40:24.908Z,8.70
2018-05-06T01:42:53.242Z,8.70
2018-05-06T01:45:21.572Z,8.60
2018-05-06T01:47:49.861Z,8.60
2018-05-06T01:50:18.144Z,8.60
2018-05-06T01:52:47.313Z,8.80
2018-05-06T01:55:15.590Z,8.80
2018-05-06T01:57:43.916Z,8.90
2018-05-06T02:00:12.965Z,8.90
2018-05-06T02:02:41.300Z,8.90
2018-05-06T02:05:09.581Z,8.80
2018-05-06T02:07:37.968Z,8.90
2018-05-06T02:10:06.293Z,8.90
2018-05-06T02:12:35.337Z,8.90
2018-05-06T02:15:03.660Z,8.90
2018-05-06T02:17:31.942Z,8.90
2018-05-06T02:20:00.269Z,8.90
2018-05-06T02:22:29.313Z,9.10
2018-05-06T02:24:57.638Z,9.10
2018-05-06T02:27:25.960Z,9.10
2018-05-06T02:29:55.025Z,9.00
2018-05-06T02:32:23.349Z,9.00
2018-05-06T02:34:52.425Z,9.00
2018-05-06T02:37:20.756Z,8.90
2018-05-06T02:39:49.040Z,8.90
2018-05-06T02:42:18.137Z,8.90
2018-05-06T02:44:47.225Z,8.90
2018-05-06T02:47:15.813Z,8.90
2018-05-06T02:49:44.093Z,8.90
2018-05-06T02:52:12.365Z,8.80
2018-05-06T02:54:40.697Z,8.70
2018-05-06T02:57:08.982Z,8.70
2018-05-06T02:59:37.360Z,8.70
2018-05-06T03:02:05.688Z,8.70
2018-05-06T03:04:34.732Z,8.60
2018-05-06T03:07:03.012Z,8.60
2018-05-06T03:09:31.333Z,8.60
2018-05-06T03:11:59.728Z,8.40
2018-05-06T03:14:28.005Z,8.40
2018-05-06T03:16:56.333Z,8.30
2018-05-06T03:19:25.424Z,8.20
2018-05-06T03:21:53.748Z,8.20
2018-05-06T03:24:22.033Z,8.20
2018-05-06T03:26:51.084Z,8.10
2018-05-06T03:29:19.409Z,8.10
2018-05-06T03:31:47.737Z,8.10
2018-05-06T03:34:16.018Z,8.20
2018-05-06T03:36:44.344Z,8.20
2018-05-06T03:39:12.669Z,8.20
2018-05-06T03:41:40.997Z,8.10
2018-05-06T03:44:09.430Z,8.10
2018-05-06T03:46:37.757Z,8.10
2018-05-06T03:49:06.801Z,8.10
2018-05-06T03:51:35.125Z,8.10
2018-05-06T03:54:03.405Z,8.10
2018-05-06T03:59:43.664Z,8.00
2018-05-06T04:05:19.641Z,8.20
2018-05-06T04:07:47.972Z,8.20
2018-05-06T04:10:16.259Z,8.30
2018-05-06T04:12:44.584Z,8.40
2018-05-06T04:15:12.884Z,8.50
2018-05-06T04:17:41.200Z,8.80
2018-05-06T04:20:10.250Z,9.00
2018-05-06T04:22:38.568Z,9.00
2018-05-06T04:25:06.852Z,9.10
2018-05-06T04:27:35.184Z,9.30
2018-05-06T04:30:04.230Z,9.50
2018-05-06T04:32:32.556Z,9.50
2018-05-06T04:35:00.840Z,9.70
2018-05-06T04:37:29.180Z,9.80
2018-05-06T04:39:57.505Z,9.90
2018-05-06T04:42:25.829Z,10.10
2018-05-06T04:44:54.881Z,10.30
2018-05-06T04:47:23.213Z,10.30
2018-05-06T04:49:52.265Z,10.60
2018-05-06T04:52:20.691Z,10.50
2018-05-06T04:54:48.977Z,10.60
2018-05-06T04:57:17.332Z,10.60
2018-05-06T04:59:45.608Z,10.60
2018-05-06T05:02:13.893Z,10.70
2018-05-06T05:04:42.230Z,10.50
2018-05-06T05:07:10.512Z,10.40
2018-05-06T05:09:39.125Z,10.40
2018-05-06T05:12:08.096Z,10.80
2018-05-06T05:14:36.377Z,10.80
2018-05-06T05:17:04.716Z,10.90
2018-05-06T05:19:32.996Z,10.80
2018-05-06T05:22:01.329Z,10.70
2018-05-06T05:24:29.670Z,10.90
2018-05-06T05:26:58.004Z,11.00
2018-05-06T05:29:27.109Z,11.10
2018-05-06T05:31:56.208Z,11.10
2018-05-06T05:34:25.327Z,11.20
2018-05-06T05:36:53.605Z,11.10
2018-05-06T05:39:22.656Z,11.50
2018-05-06T05:41:50.989Z,11.50
2018-05-06T05:44:19.273Z,11.60
2018-05-06T05:46:47.560Z,11.70
2018-05-06T05:49:16.365Z,11.90
2018-05-06T05:51:44.652Z,12.00
2018-05-06T05:54:12.940Z,12.00
2018-05-06T05:56:41.277Z,12.00
2018-05-06T05:59:09.561Z,12.00
2018-05-06T06:01:37.848Z,12.40
2018-05-06T06:04:06.177Z,12.50
2018-05-06T06:06:34.511Z,12.60
2018-05-06T06:09:03.956Z,12.40
2018-05-06T06:11:32.304Z,12.40
2018-05-06T06:14:00.589Z,12.50
2018-05-06T06:16:28.930Z,12.60
2018-05-06T06:18:57.265Z,12.60
2018-05-06T06:21:25.642Z,12.80
2018-05-06T06:23:53.923Z,13.00
2018-05-06T06:26:22.333Z,13.00
2018-05-06T06:28:50.962Z,13.30
2018-05-06T06:31:20.057Z,13.40
2018-05-06T06:33:48.337Z,13.40
2018-05-06T06:36:16.664Z,13.40
2018-05-06T06:38:44.948Z,13.60
2018-05-06T06:41:13.282Z,13.40
2018-05-06T06:43:41.626Z,13.60
2018-05-06T06:46:10.697Z,14.20
2018-05-06T06:48:39.029Z,14.10
2018-05-06T06:51:07.377Z,14.10
2018-05-06T06:53:35.737Z,14.20
2018-05-06T06:56:04.029Z,14.20
2018-05-06T06:58:32.305Z,14.20
2018-05-06T07:01:01.033Z,14.30
2018-05-06T07:03:29.309Z,14.30
2018-05-06T07:05:57.711Z,14.50
2018-05-06T07:08:25.953Z,14.50
2018-05-06T07:10:54.276Z,14.60
2018-05-06T07:13:22.567Z,14.70
2018-05-06T07:15:50.897Z,14.80
2018-05-06T07:18:19.177Z,15.00
2018-05-06T07:20:47.566Z,14.90
2018-05-06T07:23:15.943Z,15.10
2018-05-06T07:25:44.213Z,15.20
2018-05-06T07:28:12.576Z,15.10
2018-05-06T07:30:41.705Z,15.30
2018-05-06T07:33:09.984Z,15.30
2018-05-06T07:35:38.329Z,15.70
2018-05-06T07:38:06.621Z,15.90
2018-05-06T07:40:34.964Z,15.60
2018-05-06T07:43:03.292Z,15.70
2018-05-06T07:45:32.341Z,15.90
2018-05-06T07:48:00.668Z,15.90
2018-05-06T07:50:28.978Z,16.20
2018-05-06T07:52:57.685Z,16.30
2018-05-06T07:55:25.972Z,16.30
2018-05-06T07:57:54.349Z,16.50
2018-05-06T08:00:22.681Z,16.50
2018-05-06T08:02:51.748Z,16.60
2018-05-06T08:05:20.082Z,16.60
2018-05-06T08:07:49.128Z,16.70
2018-05-06T08:10:17.409Z,16.70
2018-05-06T08:12:45.755Z,16.60
2018-05-06T08:15:14.805Z,16.70
2018-05-06T08:17:43.120Z,16.70
2018-05-06T08:20:11.449Z,16.90
2018-05-06T08:22:40.493Z,16.70
2018-05-06T08:25:08.881Z,16.70
2018-05-06T08:27:37.172Z,16.70
2018-05-06T08:30:05.592Z,16.90
2018-05-06T08:32:33.874Z,17.00
2018-05-06T08:35:02.264Z,17.10
2018-05-06T08:37:30.639Z,17.30
2018-05-06T08:39:59.666Z,18.00
2018-05-06T08:42:27.937Z,18.00
2018-05-06T08:44:57.004Z,18.10
2018-05-06T08:47:26.048Z,17.60
2018-05-06T08:49:54.376Z,17.60
2018-05-06T08:52:22.749Z,17.70
2018-05-06T08:54:51.080Z,17.60
2018-05-06T08:57:20.177Z,17.70
2018-05-06T08:59:49.225Z,17.80
2018-05-06T09:02:18.766Z,17.80
2018-05-06T09:04:47.465Z,18.00
2018-05-06T09:07:16.782Z,18.00
2018-05-06T09:09:45.081Z,18.00
2018-05-06T09:12:13.468Z,18.10
2018-05-06T09:14:41.953Z,18.00
2018-05-06T09:17:10.550Z,18.10
2018-05-06T09:19:39.035Z,18.20
2018-05-06T09:22:07.296Z,18.30
2018-05-06T09:24:36.061Z,18.10
2018-05-06T09:27:04.531Z,18.10
2018-05-06T09:29:32.837Z,18.40
2018-05-06T09:32:01.172Z,18.40
2018-05-06T09:34:29.608Z,18.20
2018-05-06T09:36:57.890Z,18.30
2018-05-06T09:39:26.169Z,18.60
2018-05-06T09:41:54.769Z,18.60
2018-05-06T09:44:24.185Z,18.90
2018-05-06T09:46:52.985Z,18.80
2018-05-06T09:49:22.106Z,18.50
2018-05-06T09:51:50.389Z,18.50
2018-05-06T09:54:19.134Z,18.50
2018-05-06T09:56:48.497Z,18.60
2018-05-06T09:59:18.221Z,18.60
2018-05-06T10:01:46.576Z,18.60
2018-05-06T10:04:14.849Z,18.70
2018-05-06T10:06:43.945Z,19.10
2018-05-06T10:09:13.425Z,19.20
2018-05-06T10:11:41.896Z,19.20
2018-05-06T10:14:10.465Z,19.10
2018-05-06T10:16:39.008Z,18.70
2018-05-06T10:19:07.361Z,18.50
2018-05-06T10:21:35.688Z,18.90
2018-05-06T10:24:03.976Z,18.90
2018-05-06T10:26:32.252Z,19.10
2018-05-06T10:29:00.586Z,19.30
2018-05-06T10:31:28.872Z,19.50
2018-05-06T10:33:57.214Z,18.90
2018-05-06T10:36:25.632Z,19.00
2018-05-06T10:38:54.329Z,19.20
2018-05-06T10:41:22.609Z,19.30
2018-05-06T10:43:50.889Z,19.10
2018-05-06T10:46:19.212Z,19.30
2018-05-06T10:48:47.497Z,19.50
2018-05-06T10:51:16.656Z,19.30
2018-05-06T10:53:44.932Z,19.30
2018-05-06T10:56:13.216Z,19.20
2018-05-06T10:58:42.338Z,19.00
2018-05-06T11:01:10.621Z,19.00
2018-05-06T11:03:38.969Z,19.10
2018-05-06T11:06:07.668Z,19.30
2018-05-06T11:08:37.467Z,19.30
2018-05-06T11:11:05.749Z,19.30
2018-05-06T11:13:34.073Z,19.40
2018-05-06T11:16:02.427Z,19.50
2018-05-06T11:18:30.700Z,19.60
2018-05-06T11:20:59.048Z,19.80
2018-05-06T11:23:27.424Z,19.80
2018-05-06T11:25:55.824Z,20.00
2018-05-06T11:28:24.393Z,20.30
2018-05-06T11:30:52.680Z,20.30
2018-05-06T11:33:21.057Z,20.50
2018-05-06T11:35:49.375Z,20.70
2018-05-06T11:38:17.648Z,21.00
2018-05-06T11:40:46.061Z,21.00
2018-05-06T11:43:14.408Z,21.20
2018-05-06T11:45:42.760Z,21.00
2018-05-06T11:48:11.089Z,20.70
2018-05-06T11:50:40.156Z,20.40
2018-05-06T11:53:08.481Z,20.40
2018-05-06T11:55:36.814Z,20.40
2018-05-06T11:58:05.104Z,20.70
2018-05-06T12:00:33.511Z,20.70
2018-05-06T12:03:01.841Z,20.20
2018-05-06T12:05:30.168Z,20.20
2018-05-06T12:07:58.457Z,20.60
2018-05-06T12:10:26.961Z,20.60
2018-05-06T12:12:55.241Z,20.50
2018-05-06T12:15:23.520Z,20.70
2018-05-06T12:17:51.849Z,20.60
2018-05-06T12:20:20.136Z,20.60
2018-05-06T12:22:48.460Z,20.60
2018-05-06T12:25:16.742Z,20.80
2018-05-06T12:27:45.836Z,20.80
2018-05-06T12:30:14.913Z,20.80
2018-05-06T12:32:43.194Z,20.80
2018-05-06T12:35:11.526Z,21.00
2018-05-06T12:37:40.602Z,21.20
2018-05-06T12:40:08.881Z,21.20
2018-05-06T12:42:37.216Z,20.80
2018-05-06T12:45:06.317Z,21.10
2018-05-06T12:47:35.365Z,21.30
2018-05-06T12:50:03.696Z,21.30
2018-05-06T12:52:32.076Z,20.90
2018-05-06T12:55:00.484Z,21.00
2018-05-06T12:57:28.769Z,21.40
2018-05-06T12:59:57.453Z,21.30
2018-05-06T13:02:26.574Z,21.20
2018-05-06T13:04:54.959Z,21.20
2018-05-06T13:07:23.300Z,21.10
2018-05-06T13:09:51.628Z,21.00
2018-05-06T13:12:19.910Z,21.20
2018-05-06T13:14:48.253Z,21.10
2018-05-06T13:17:17.386Z,21.20
2018-05-06T13:19:45.620Z,21.20
2018-05-06T13:22:14.013Z,21.20
2018-05-06T13:24:42.576Z,21.00
2018-05-06T13:27:10.932Z,21.20
2018-05-06T13:29:40.104Z,21.10
2018-05-06T13:32:08.437Z,21.10
2018-05-06T13:34:37.534Z,21.30
2018-05-06T13:37:06.629Z,21.40
2018-05-06T13:39:35.009Z,21.40
2018-05-06T13:42:03.393Z,21.30
2018-05-06T13:44:31.970Z,21.30
2018-05-06T13:47:00.345Z,21.30
2018-05-06T13:49:28.637Z,21.20
2018-05-06T13:51:56.960Z,21.00
2018-05-06T13:54:25.245Z,20.90
2018-05-06T13:56:53.576Z,21.30
2018-05-06T13:59:22.629Z,21.60
2018-05-06T14:01:50.972Z,21.60
2018-05-06T14:04:20.064Z,21.90
2018-05-06T14:06:48.353Z,21.90
2018-05-06T14:09:16.684Z,22.00
2018-05-06T14:11:44.965Z,21.80
2018-05-06T14:14:13.299Z,21.90
2018-05-06T14:16:41.603Z,22.00
2018-05-06T14:19:09.937Z,22.10
2018-05-06T14:21:38.301Z,22.20
2018-05-06T14:24:06.521Z,21.70
2018-05-06T14:26:34.867Z,21.60
2018-05-06T14:29:03.200Z,21.80
2018-05-06T14:31:31.482Z,22.10
2018-05-06T14:33:59.813Z,22.30
2018-05-06T14:36:28.101Z,22.20
2018-05-06T14:38:56.441Z,22.10
2018-05-06T14:41:25.484Z,21.90
2018-05-06T14:43:53.764Z,21.90
2018-05-06T14:46:34.164Z,21.90
2018-05-06T14:49:02.515Z,21.70
2018-05-06T14:51:30.848Z,21.80
2018-05-06T14:53:59.241Z,21.70
2018-05-06T14:56:27.525Z,21.90
2018-05-06T14:58:55.901Z,22.20
2018-05-06T15:01:24.208Z,22.30
2018-05-06T15:03:52.493Z,22.30
2018-05-06T15:06:20.830Z,22.30
2018-05-06T15:08:49.993Z,23.10
2018-05-06T15:11:18.392Z,23.00
2018-05-06T15:13:46.787Z,23.90
2018-05-06T15:16:15.172Z,25.00
2018-05-06T15:18:43.453Z,26.20
2018-05-06T15:21:11.806Z,26.70
2018-05-06T15:23:40.349Z,26.00
2018-05-06T15:26:08.645Z,26.30
2018-05-06T15:28:36.928Z,26.20
2018-05-06T15:31:05.269Z,26.10
2018-05-06T15:33:33.549Z,26.80
2018-05-06T15:36:01.975Z,28.50
2018-05-06T15:38:30.337Z,27.90
2018-05-06T15:40:58.698Z,28.80
2018-05-06T15:43:26.973Z,29.30
2018-05-06T15:45:55.252Z,27.70
2018-05-06T15:48:23.581Z,27.40
2018-05-06T15:50:52.677Z,27.00
2018-05-06T15:53:20.970Z,27.00
2018-05-06T15:55:49.333Z,26.90
2018-05-06T15:58:17.676Z,27.90
2018-05-06T16:00:46.009Z,29.50
2018-05-06T16:03:26.294Z,28.90
2018-05-06T16:05:54.573Z,28.60
2018-05-06T16:08:23.168Z,29.80
2018-05-06T16:10:51.449Z,29.00
2018-05-06T16:13:19.728Z,28.10
2018-05-06T16:15:48.057Z,28.30
2018-05-06T16:18:16.429Z,28.90
2018-05-06T16:20:45.537Z,27.70
2018-05-06T16:23:13.929Z,26.70
2018-05-06T16:25:42.264Z,27.30
2018-05-06T16:28:11.356Z,30.20
2018-05-06T16:30:40.405Z,29.60
2018-05-06T16:33:08.819Z,29.60
2018-05-06T16:35:37.800Z,28.00
2018-05-06T16:38:06.222Z,28.00
2018-05-06T16:40:34.510Z,27.00
2018-05-06T16:43:02.833Z,26.10
2018-05-06T16:45:31.881Z,23.50
2018-05-06T16:48:00.468Z,23.40
2018-05-06T16:50:28.744Z,23.20
2018-05-06T16:52:57.032Z,22.90
2018-05-06T16:55:25.376Z,22.40
2018-05-06T16:57:53.669Z,22.10
2018-05-06T17:00:23.452Z,21.70
2018-05-06T17:02:51.788Z,21.70
2018-05-06T17:05:20.169Z,21.40
2018-05-06T17:07:48.509Z,21.40
2018-05-06T17:10:16.797Z,21.20
2018-05-06T17:12:45.076Z,21.00
2018-05-06T17:15:14.456Z,20.70
2018-05-06T17:17:44.272Z,20.50
2018-05-06T17:20:12.060Z,20.50
2018-05-06T17:22:40.439Z,20.60
2018-05-06T17:25:08.760Z,20.40
2018-05-06T17:27:37.065Z,20.30
2018-05-06T17:30:05.417Z,20.30
2018-05-06T17:32:34.521Z,20.50
2018-05-06T17:35:02.801Z,20.40
2018-05-06T17:37:31.140Z,20.50
2018-05-06T17:39:59.469Z,20.30
2018-05-06T17:42:27.800Z,20.30
2018-05-06T17:44:56.902Z,20.30
2018-05-06T17:47:25.277Z,20.30
2018-05-06T17:49:53.664Z,20.30
2018-05-06T17:52:21.957Z,20.30
2018-05-06T17:54:50.288Z,20.20
2018-05-06T17:57:19.384Z,20.10
2018-05-06T17:59:48.464Z,19.80
2018-05-06T18:02:16.796Z,19.80
2018-05-06T18:04:45.835Z,19.60
2018-05-06T18:07:14.248Z,19.60
2018-05-06T18:09:42.638Z,19.50
2018-05-06T18:12:10.976Z,19.40
2018-05-06T18:14:39.257Z,19.30
2018-05-06T18:17:08.310Z,19.10
2018-05-06T18:19:36.652Z,19.10
2018-05-06T18:22:05.737Z,18.80
2018-05-06T18:24:34.358Z,18.80
2018-05-06T18:27:02.628Z,18.60
2018-05-06T18:29:30.905Z,18.60
2018-05-06T18:32:00.740Z,18.50
2018-05-06T18:34:29.083Z,18.50
2018-05-06T18:36:57.364Z,18.40
2018-05-06T18:39:25.792Z,18.20
2018-05-06T18:41:54.121Z,18.10
2018-05-06T18:44:23.185Z,17.70
2018-05-06T18:46:51.555Z,17.70
2018-05-06T18:49:19.872Z,17.50
2018-05-06T18:51:48.269Z,17.40
2018-05-06T18:54:16.548Z,17.30
2018-05-06T18:56:44.876Z,17.20
2018-05-06T18:59:13.924Z,16.90
2018-05-06T19:01:42.257Z,16.90
2018-05-06T19:04:10.537Z,16.80
2018-05-06T19:06:40.325Z,16.60
2018-05-06T19:09:08.736Z,16.60
2018-05-06T19:11:37.137Z,16.50
2018-05-06T19:14:05.476Z,16.30
2018-05-06T19:16:33.753Z,16.20
2018-05-06T19:19:02.853Z,15.90
2018-05-06T19:21:31.896Z,15.90
2018-05-06T19:24:00.322Z,15.90
2018-05-06T19:26:28.617Z,15.70
2018-05-06T19:28:56.947Z,15.60
2018-05-06T19:31:25.229Z,15.60
2018-05-06T19:33:54.396Z,15.50
2018-05-06T19:36:22.732Z,15.50
2018-05-06T19:38:51.780Z,15.10
2018-05-06T19:41:20.184Z,15.10
2018-05-06T19:43:48.469Z,14.90
2018-05-06T19:46:16.751Z,14.70
2018-05-06T19:48:45.081Z,14.70
2018-05-06T19:51:13.453Z,14.60
2018-05-06T19:53:41.741Z,14.50
2018-05-06T19:56:10.069Z,14.40
2018-05-06T19:58:38.404Z,14.60
2018-05-06T20:01:06.808Z,14.70
2018-05-06T20:03:35.092Z,14.60
2018-05-06T20:06:03.428Z,14.60
2018-05-06T20:08:32.472Z,14.30
2018-05-06T20:11:01.093Z,14.30
2018-05-06T20:13:29.410Z,14.10
2018-05-06T20:15:57.677Z,13.90
2018-05-06T20:18:26.065Z,13.80
2018-05-06T20:20:54.348Z,14.00
2018-05-06T20:23:22.637Z,14.00
2018-05-06T20:25:50.965Z,14.00
2018-05-06T20:28:20.013Z,13.80
2018-05-06T20:30:48.636Z,13.70
2018-05-06T20:33:17.022Z,13.60
2018-05-06T20:35:45.312Z,13.50
2018-05-06T20:38:13.644Z,13.40
2018-05-06T20:40:41.932Z,13.30
2018-05-06T20:43:10.222Z,13.20
2018-05-06T20:45:39.388Z,13.00
2018-05-06T20:48:07.725Z,13.00
2018-05-06T20:50:36.764Z,12.90
2018-05-06T20:53:05.093Z,12.90
2018-05-06T20:55:33.376Z,12.80
2018-05-06T20:58:02.475Z,12.70
2018-05-06T21:00:30.809Z,12.70
2018-05-06T21:02:59.092Z,12.70
2018-05-06T21:05:27.441Z,12.70
2018-05-06T21:07:55.789Z,12.60
2018-05-06T21:10:24.143Z,12.60
2018-05-06T21:12:52.417Z,12.60
2018-05-06T21:15:20.752Z,12.60
2018-05-06T21:17:49.041Z,12.60
2018-05-06T21:20:17.376Z,12.50
2018-05-06T21:22:45.667Z,12.50
2018-05-06T21:25:13.950Z,12.50
2018-05-06T21:27:42.289Z,12.50
2018-05-06T21:30:11.340Z,12.60
2018-05-06T21:32:39.668Z,12.60
2018-05-06T21:35:08.752Z,12.80
2018-05-06T21:37:37.147Z,12.80
2018-05-06T21:40:05.429Z,12.60
2018-05-06T21:42:33.824Z,12.50
2018-05-06T21:45:02.293Z,12.30
2018-05-06T21:47:30.608Z,12.40
2018-05-06T21:49:58.997Z,12.40
2018-05-06T21:52:27.288Z,12.30
2018-05-06T21:54:55.619Z,12.30
2018-05-06T21:57:24.730Z,12.30
2018-05-06T21:59:53.012Z,12.30
2018-05-06T22:02:22.064Z,12.00
2018-05-06T22:04:50.472Z,12.00
2018-05-06T22:07:18.809Z,11.80
2018-05-06T22:09:47.141Z,11.70
2018-05-06T22:12:15.429Z,11.70
2018-05-06T22:14:43.761Z,11.70
2018-05-06T22:17:12.809Z,11.50
2018-05-06T22:19:41.145Z,11.50
2018-05-06T22:22:10.941Z,11.60
2018-05-06T22:24:39.271Z,11.60
2018-05-06T22:27:08.320Z,11.80
2018-05-06T22:29:36.660Z,11.70
2018-05-06T22:32:06.496Z,11.50
2018-05-06T22:34:35.593Z,11.40
2018-05-06T22:37:03.877Z,11.40
2018-05-06T22:39:32.361Z,11.30
2018-05-06T22:42:00.641Z,11.10
2018-05-06T22:44:28.937Z,11.20
2018-05-06T22:46:57.276Z,11.40
2018-05-06T22:49:25.565Z,11.40
2018-05-06T22:51:53.849Z,11.30
2018-05-06T22:54:22.196Z,11.30
2018-05-06T22:56:50.483Z,11.10
2018-05-06T22:59:18.765Z,10.90
2018-05-06T23:01:47.145Z,10.80
2018-05-06T23:04:15.465Z,10.80
2018-05-06T23:06:43.744Z,11.00
2018-05-06T23:09:12.085Z,11.10
2018-05-06T23:11:40.688Z,11.10
2018-05-06T23:14:08.972Z,11.10
2018-05-06T23:16:37.262Z,11.00
2018-05-06T23:19:05.801Z,10.90
2018-05-06T23:21:34.096Z,10.90
2018-05-06T23:24:02.381Z,10.90
2018-05-06T23:26:31.134Z,10.80
2018-05-06T23:28:59.372Z,10.80
2018-05-06T23:31:27.662Z,10.80
2018-05-06T23:33:57.504Z,10.50
2018-05-06T23:36:26.560Z,10.60
2018-05-06T23:38:54.892Z,10.50
2018-05-06T23:41:23.993Z,10.50
2018-05-06T23:43:52.359Z,10.50
2018-05-06T23:46:20.672Z,10.50
2018-05-06T23:48:48.964Z,10.40
2018-05-06T23:51:18.800Z,10.30
2018-05-06T23:53:47.888Z,10.20
2018-05-06T23:56:16.244Z,10.20
2018-05-06T23:58:44.560Z,10.30
